Time;durP1;ratioP1;P1;durP2;ratioP2;P2;SDS_P1;SDS_P2;PMS_P1;PMS_P2;Temp;Humidity;BMP_temperature;BMP_pressure;BME280_temperature;BME280_humidity;BME280_pressure;Samples;Min_cycle;Max_cycle;Signal;HPM_P1;HPM_P2
2024/02/14 00:00:00;;;;;;;3.55;1.00;;;5.80;94.80;;;;;;5031101;28;20065;-79
2024/02/14 00:02:26;;;;;;;2.70;1.17;;;5.60;95.40;;;;;;5031448;28;21419;-80
2024/02/14 00:04:53;;;;;;;1.85;0.95;;;5.40;95.60;;;;;;5031385;28;20119;-80
2024/02/14 00:07:19;;;;;;;2.65;1.17;;;5.50;95.30;;;;;;5031724;28;20040;-80
2024/02/14 00:09:45;;;;;;;3.53;1.50;;;6.00;94.00;;;;;;5030972;28;20032;-80
2024/02/14 00:12:11;;;;;;;2.85;1.00;;;6.00;94.40;;;;;;5035102;28;20037;-81
2024/02/14 00:14:37;;;;;;;2.40;1.05;;;5.80;95.20;;;;;;5032987;28;20087;-81
2024/02/14 00:17:04;;;;;;;3.00;1.20;;;5.50;95.70;;;;;;5032715;28;20040;-79
2024/02/14 00:19:30;;;;;;;2.80;1.10;;;5.70;94.70;;;;;;5033276;28;20510;-79
2024/02/14 00:21:56;;;;;;;2.53;1.00;;;5.90;94.50;;;;;;5034461;28;20052;-79
2024/02/14 00:24:23;;;;;;;2.67;1.00;;;6.00;94.10;;;;;;5035289;28;20115;-79
2024/02/14 00:26:50;;;;;;;2.28;1.02;;;6.10;94.10;;;;;;5035610;28;20060;-79
2024/02/14 00:29:16;;;;;;;1.95;0.90;;;6.10;93.80;;;;;;5038439;28;20039;-79
2024/02/14 00:31:44;;;;;;;2.63;1.00;;;6.20;93.80;;;;;;5038992;28;20033;-79
2024/02/14 00:34:10;;;;;;;4.25;1.13;;;6.10;94.40;;;;;;5039381;28;20398;-79
2024/02/14 00:36:36;;;;;;;1.85;0.82;;;5.90;94.60;;;;;;5037619;28;20052;-79
2024/02/14 00:39:02;;;;;;;3.60;1.10;;;5.70;95.20;;;;;;5037823;28;20053;-79
2024/02/14 00:41:29;;;;;;;4.18;1.00;;;5.50;95.50;;;;;;5039610;28;20033;-79
2024/02/14 00:43:56;;;;;;;3.70;1.45;;;5.60;95.70;;;;;;5038373;28;20033;-79
2024/02/14 00:46:22;;;;;;;2.10;1.00;;;5.60;95.50;;;;;;5037723;28;20032;-79
2024/02/14 00:48:48;;;;;;;3.13;1.20;;;5.50;95.70;;;;;;5038347;28;20035;-79
2024/02/14 00:51:17;;;;;;;4.00;0.85;;;5.50;95.70;;;;;;5037705;28;20098;-79
2024/02/14 00:53:43;;;;;;;2.40;1.15;;;5.60;95.20;;;;;;5038065;28;20040;-79
2024/02/14 00:56:08;;;;;;;2.10;0.80;;;5.70;95.10;;;;;;5038894;28;21432;-79
2024/02/14 00:58:34;;;;;;;3.38;1.00;;;5.90;94.70;;;;;;5036776;28;20053;-79
2024/02/14 01:01:00;;;;;;;2.60;1.40;;;5.90;94.50;;;;;;5037832;28;20061;-79
2024/02/14 01:03:26;;;;;;;1.90;0.85;;;5.90;94.30;;;;;;5040043;28;20036;-79
2024/02/14 01:05:52;;;;;;;3.40;1.20;;;6.00;94.90;;;;;;5037255;28;20053;-79
2024/02/14 01:08:17;;;;;;;4.00;1.10;;;5.70;95.40;;;;;;5037174;28;20037;-81
2024/02/14 01:10:43;;;;;;;3.17;1.30;;;5.60;95.60;;;;;;5037565;28;20035;-81
2024/02/14 01:13:09;;;;;;;2.95;1.23;;;5.60;95.10;;;;;;5036894;28;20119;-81
2024/02/14 01:15:40;;;;;;;3.50;0.93;;;5.70;95.00;;;;;;5037065;28;20497;-79
2024/02/14 01:18:17;;;;;;;3.78;1.25;;;5.60;95.40;;;;;;5036819;28;20056;-79
2024/02/14 01:20:43;;;;;;;2.85;1.17;;;5.50;95.60;;;;;;5038187;28;20048;-79
2024/02/14 01:23:09;;;;;;;3.20;1.10;;;5.50;95.20;;;;;;5037131;28;20060;-79
2024/02/14 01:25:45;;;;;;;2.38;1.10;;;5.50;95.50;;;;;;5038796;28;20119;-79
2024/02/14 01:28:11;;;;;;;2.05;0.82;;;5.30;95.70;;;;;;5034710;28;20045;-79
2024/02/14 01:30:37;;;;;;;3.53;1.25;;;5.10;96.10;;;;;;5038134;28;20033;-79
2024/02/14 01:33:03;;;;;;;1.63;0.80;;;5.00;96.20;;;;;;5037757;28;20033;-81
2024/02/14 01:35:30;;;;;;;3.13;1.42;;;5.10;96.00;;;;;;5038296;28;20087;-79
2024/02/14 01:37:55;;;;;;;1.67;0.90;;;5.30;95.40;;;;;;5037736;28;20048;-81
2024/02/14 01:40:21;;;;;;;2.20;0.93;;;5.30;95.40;;;;;;5034066;28;20048;-81
2024/02/14 01:42:47;;;;;;;3.10;1.15;;;5.40;94.80;;;;;;5037328;28;20048;-81
2024/02/14 01:45:13;;;;;;;1.95;0.98;;;5.60;94.80;;;;;;5036161;28;20082;-81
2024/02/14 01:47:41;;;;;;;3.22;1.13;;;5.30;95.00;;;;;;5036171;28;20032;-81
2024/02/14 01:50:10;;;;;;;2.25;0.98;;;5.30;95.60;;;;;;5037192;28;20513;-81
2024/02/14 01:52:38;;;;;;;3.53;1.20;;;5.40;94.70;;;;;;5036888;28;20025;-81
2024/02/14 01:55:05;;;;;;;2.40;1.00;;;5.40;94.90;;;;;;5035966;28;20047;-81
2024/02/14 01:57:32;;;;;;;2.47;1.05;;;5.50;94.70;;;;;;5037987;28;20029;-81
2024/02/14 01:59:59;;;;;;;1.65;0.80;;;5.30;95.10;;;;;;5036338;28;20149;-81
2024/02/14 02:02:28;;;;;;;2.70;0.65;;;5.20;95.00;;;;;;5036328;28;20047;-81
2024/02/14 02:04:54;;;;;;;4.03;0.93;;;5.30;95.00;;;;;;5036445;28;20123;-81
2024/02/14 02:07:20;;;;;;;3.63;1.10;;;5.30;94.90;;;;;;5037492;28;20483;-81
2024/02/14 02:09:46;;;;;;;2.75;1.25;;;5.30;95.10;;;;;;5035580;28;20021;-81
2024/02/14 02:12:12;;;;;;;2.78;1.00;;;4.90;96.20;;;;;;5034939;28;20033;-81
2024/02/14 02:14:40;;;;;;;2.92;1.08;;;4.90;96.30;;;;;;5037770;28;20032;-81
2024/02/14 02:17:07;;;;;;;1.92;0.95;;;4.90;96.00;;;;;;5036574;28;20047;-81
2024/02/14 02:19:34;;;;;;;2.45;1.42;;;4.80;96.30;;;;;;5034817;28;20037;-81
2024/02/14 02:22:00;;;;;;;2.78;0.90;;;4.90;96.00;;;;;;5037338;28;20068;-81
2024/02/14 02:24:26;;;;;;;4.22;1.25;;;4.70;96.10;;;;;;5036163;28;20491;-81
2024/02/14 02:26:51;;;;;;;3.90;1.00;;;4.80;95.80;;;;;;5036908;28;20035;-81
2024/02/14 02:29:19;;;;;;;2.50;1.00;;;4.80;96.10;;;;;;5036628;28;20117;-81
2024/02/14 02:31:45;;;;;;;2.47;1.00;;;4.70;96.50;;;;;;5035864;28;20406;-80
2024/02/14 02:34:11;;;;;;;2.70;1.20;;;5.20;95.20;;;;;;5036414;28;20080;-81
2024/02/14 02:36:37;;;;;;;2.45;1.30;;;5.30;95.00;;;;;;5035957;28;20040;-81
2024/02/14 02:39:04;;;;;;;3.17;1.20;;;5.50;94.70;;;;;;5034928;28;20049;-81
2024/02/14 02:41:31;;;;;;;4.15;1.30;;;5.50;94.70;;;;;;5036967;28;20041;-81
2024/02/14 02:43:57;;;;;;;2.30;0.90;;;5.60;94.60;;;;;;5037047;28;20060;-81
2024/02/14 02:46:25;;;;;;;3.85;1.10;;;5.50;94.70;;;;;;5036737;28;20479;-81
2024/02/14 02:48:54;;;;;;;2.35;0.73;;;5.50;94.60;;;;;;5036404;28;20040;-81
2024/02/14 02:51:20;;;;;;;1.95;0.82;;;5.20;95.20;;;;;;5034218;28;21188;-80
2024/02/14 02:53:46;;;;;;;2.67;0.98;;;5.10;95.40;;;;;;5035624;28;20037;-81
2024/02/14 02:56:14;;;;;;;3.40;1.30;;;5.10;95.30;;;;;;5035801;28;20048;-81
2024/02/14 02:58:40;;;;;;;3.50;1.00;;;5.00;95.90;;;;;;5036548;28;20040;-81
2024/02/14 03:01:09;;;;;;;1.80;0.73;;;5.00;95.40;;;;;;5035243;28;20036;-81
2024/02/14 03:03:36;;;;;;;2.08;0.82;;;4.80;96.00;;;;;;5035961;28;20083;-81
2024/02/14 03:06:03;;;;;;;3.22;1.02;;;4.70;96.70;;;;;;5037372;28;20033;-81
2024/02/14 03:08:30;;;;;;;2.03;1.00;;;4.60;97.10;;;;;;5035285;28;20035;-81
2024/02/14 03:10:59;;;;;;;3.35;1.02;;;4.80;96.30;;;;;;5034684;28;20036;-79
2024/02/14 03:13:26;;;;;;;20.23;6.57;;;4.90;95.70;;;;;;5036367;28;20036;-80
2024/02/14 03:15:52;;;;;;;3.47;1.45;;;5.20;95.40;;;;;;5036388;28;20053;-79
2024/02/14 03:18:18;;;;;;;3.58;1.40;;;5.30;95.20;;;;;;5035511;28;21491;-79
2024/02/14 03:20:44;;;;;;;4.35;1.30;;;5.40;95.00;;;;;;5034787;28;20482;-79
2024/02/14 03:23:10;;;;;;;2.55;1.10;;;5.30;95.10;;;;;;5036554;28;20044;-78
2024/02/14 03:25:36;;;;;;;3.38;1.27;;;5.20;95.40;;;;;;5036048;28;20060;-79
2024/02/14 03:28:08;;;;;;;1.35;0.75;;;5.10;95.50;;;;;;5036656;28;20041;-79
2024/02/14 03:30:39;;;;;;;2.88;1.13;;;5.00;95.80;;;;;;5035332;28;20098;-79
2024/02/14 03:33:05;;;;;;;2.63;0.95;;;4.90;96.10;;;;;;5036658;28;20044;-78
2024/02/14 03:35:31;;;;;;;3.78;1.73;;;4.80;96.30;;;;;;5036340;28;20095;-80
2024/02/14 03:37:57;;;;;;;3.10;1.27;;;5.10;95.30;;;;;;5035881;28;20041;-79
2024/02/14 03:40:23;;;;;;;2.17;0.95;;;5.00;95.50;;;;;;5034890;28;20041;-79
2024/02/14 03:42:49;;;;;;;2.15;0.80;;;5.20;95.20;;;;;;5036113;28;20048;-79
2024/02/14 03:45:15;;;;;;;2.33;0.98;;;5.20;95.10;;;;;;5037047;28;20037;-79
2024/02/14 03:47:41;;;;;;;1.73;0.80;;;5.70;94.30;;;;;;5035851;28;20057;-79
2024/02/14 03:50:08;;;;;;;5.57;1.20;;;5.60;94.70;;;;;;5036834;28;20033;-79
2024/02/14 03:52:34;;;;;;;2.95;1.10;;;5.60;94.90;;;;;;5035908;28;20040;-79
2024/02/14 03:55:01;;;;;;;2.53;0.90;;;5.60;94.70;;;;;;5034991;28;20415;-79
2024/02/14 03:57:29;;;;;;;2.53;1.05;;;5.70;94.70;;;;;;5037150;28;20025;-79
2024/02/14 03:59:56;;;;;;;2.22;1.02;;;5.80;94.30;;;;;;5033552;28;20044;-79
2024/02/14 04:02:23;;;;;;;3.45;1.10;;;5.80;94.60;;;;;;5033856;28;20360;-79
2024/02/14 04:04:49;;;;;;;3.45;1.00;;;5.80;94.00;;;;;;5036373;28;20086;-79
2024/02/14 04:07:15;;;;;;;2.72;1.02;;;5.80;94.20;;;;;;5035226;28;20033;-80
2024/02/14 04:09:40;;;;;;;2.58;1.10;;;5.70;94.60;;;;;;5036162;28;20383;-80
2024/02/14 04:12:07;;;;;;;2.95;1.00;;;5.50;95.10;;;;;;5033732;28;20055;-80
2024/02/14 04:14:32;;;;;;;2.92;1.13;;;5.40;94.70;;;;;;5037457;28;20052;-79
2024/02/14 04:16:58;;;;;;;3.08;1.00;;;5.40;95.00;;;;;;5032671;28;20068;-79
2024/02/14 04:19:24;;;;;;;2.22;0.90;;;5.30;95.30;;;;;;5031916;28;20068;-79
2024/02/14 04:21:50;;;;;;;1.80;0.80;;;5.30;95.90;;;;;;5032718;28;20025;-79
2024/02/14 04:24:15;;;;;;;3.97;1.10;;;5.10;96.00;;;;;;5033393;28;20615;-81
2024/02/14 04:26:41;;;;;;;2.08;0.88;;;5.20;95.50;;;;;;5034249;28;20040;-81
2024/02/14 04:29:08;;;;;;;2.13;0.90;;;5.30;95.30;;;;;;5034826;28;20116;-81
2024/02/14 04:31:34;;;;;;;5.15;1.05;;;5.40;94.90;;;;;;5031091;28;20102;-81
2024/02/14 04:34:00;;;;;;;2.65;0.70;;;5.30;95.50;;;;;;5031721;28;20511;-81
2024/02/14 04:36:26;;;;;;;3.58;1.02;;;5.30;95.50;;;;;;5034383;28;20102;-82
2024/02/14 04:38:53;;;;;;;4.60;1.48;;;5.30;95.30;;;;;;5031568;28;20060;-81
2024/02/14 04:41:19;;;;;;;5.13;1.63;;;5.20;95.50;;;;;;5035143;28;20159;-83
2024/02/14 04:43:45;;;;;;;3.70;1.70;;;5.10;96.20;;;;;;5035715;28;20033;-81
2024/02/14 04:46:10;;;;;;;4.35;1.65;;;4.80;96.80;;;;;;5034942;28;20040;-81
2024/02/14 04:48:37;;;;;;;3.40;1.50;;;4.90;96.20;;;;;;5038260;28;20032;-81
2024/02/14 04:51:04;;;;;;;2.25;1.00;;;4.90;95.90;;;;;;5042812;28;20025;-81
2024/02/14 04:53:34;;;;;;;3.72;1.17;;;5.20;94.90;;;;;;5046942;28;20049;-83
2024/02/14 04:55:59;;;;;;;3.53;1.40;;;4.80;96.30;;;;;;5046087;28;20137;-82
2024/02/14 04:58:26;;;;;;;2.22;0.88;;;4.70;96.70;;;;;;5046299;28;20041;-81
2024/02/14 05:00:52;;;;;;;2.05;0.82;;;4.90;95.40;;;;;;5030891;28;20043;-81
2024/02/14 05:03:18;;;;;;;3.70;1.27;;;5.10;95.00;;;;;;5032648;28;20033;-81
2024/02/14 05:05:44;;;;;;;2.10;0.85;;;5.30;95.10;;;;;;5033594;28;20071;-81
2024/02/14 05:08:09;;;;;;;2.70;1.50;;;5.20;95.10;;;;;;5031890;28;20131;-81
2024/02/14 05:10:35;;;;;;;2.88;1.10;;;5.00;95.50;;;;;;5030353;28;20044;-80
2024/02/14 05:13:01;;;;;;;2.53;0.77;;;5.10;95.10;;;;;;5032399;28;20037;-80
2024/02/14 05:15:27;;;;;;;4.38;1.30;;;5.20;95.10;;;;;;5029850;28;20033;-79
2024/02/14 05:17:52;;;;;;;2.22;0.90;;;5.40;94.90;;;;;;5031660;28;20140;-81
2024/02/14 05:20:18;;;;;;;3.13;1.02;;;5.30;95.00;;;;;;5033247;28;20037;-81
2024/02/14 05:22:44;;;;;;;2.67;1.02;;;5.30;94.90;;;;;;5031739;28;20037;-82
2024/02/14 05:25:09;;;;;;;2.40;1.13;;;5.10;95.20;;;;;;5032757;28;20036;-81
2024/02/14 05:27:36;;;;;;;3.28;1.35;;;4.90;95.60;;;;;;5032785;28;20044;-81
2024/02/14 05:30:05;;;;;;;2.70;1.02;;;4.90;95.80;;;;;;5032021;28;20025;-80
2024/02/14 05:32:34;;;;;;;2.33;1.00;;;4.80;95.80;;;;;;5030826;28;20708;-81
2024/02/14 05:35:00;;;;;;;2.22;0.85;;;4.70;95.80;;;;;;5034341;28;20116;-81
2024/02/14 05:37:29;;;;;;;2.15;0.88;;;4.80;95.80;;;;;;5032690;28;20029;-81
2024/02/14 05:39:55;;;;;;;2.83;1.15;;;4.40;96.50;;;;;;5032840;28;20048;-81
2024/02/14 05:42:21;;;;;;;2.90;1.00;;;4.20;97.10;;;;;;5030608;28;20040;-81
2024/02/14 05:44:47;;;;;;;1.65;0.70;;;4.20;96.90;;;;;;5032741;28;20041;-81
2024/02/14 05:47:13;;;;;;;1.85;1.00;;;4.10;97.50;;;;;;5031622;28;20119;-80
2024/02/14 05:49:39;;;;;;;3.25;0.95;;;4.20;96.70;;;;;;5032781;28;20043;-81
2024/02/14 05:52:06;;;;;;;2.17;0.90;;;4.30;96.80;;;;;;5030267;28;20040;-81
2024/02/14 05:54:32;;;;;;;3.25;0.80;;;4.30;96.50;;;;;;5031409;28;20033;-81
2024/02/14 05:56:57;;;;;;;2.47;1.10;;;4.30;96.50;;;;;;5032917;28;20053;-81
2024/02/14 05:59:23;;;;;;;2.95;0.98;;;4.30;96.70;;;;;;5030347;28;20041;-83
2024/02/14 06:01:49;;;;;;;2.03;0.85;;;4.50;96.30;;;;;;5031059;28;20494;-81
2024/02/14 06:04:14;;;;;;;2.55;1.10;;;4.60;95.90;;;;;;5032354;28;20075;-81
2024/02/14 06:06:40;;;;;;;2.90;1.17;;;4.60;95.90;;;;;;5031815;28;20741;-82
2024/02/14 06:09:09;;;;;;;4.38;1.42;;;4.60;96.00;;;;;;5031391;28;20068;-81
2024/02/14 06:11:38;;;;;;;3.08;1.20;;;4.70;95.90;;;;;;5032067;28;20029;-81
2024/02/14 06:14:08;;;;;;;3.60;1.25;;;4.90;95.50;;;;;;5031742;28;20463;-82
2024/02/14 06:16:34;;;;;;;2.70;1.05;;;4.80;95.80;;;;;;5032124;28;20048;-79
2024/02/14 06:19:00;;;;;;;2.53;0.98;;;4.90;95.60;;;;;;5031182;28;20040;-79
2024/02/14 06:21:27;;;;;;;3.92;1.63;;;4.90;95.40;;;;;;5036960;28;20040;-80
2024/02/14 06:23:53;;;;;;;3.33;1.05;;;4.80;95.60;;;;;;5031037;28;20624;-78
2024/02/14 06:26:21;;;;;;;2.17;0.95;;;4.60;96.00;;;;;;5030585;28;20746;-79
2024/02/14 06:28:47;;;;;;;2.95;1.10;;;4.60;96.10;;;;;;5031595;28;20693;-81
2024/02/14 06:31:14;;;;;;;2.53;0.90;;;4.50;96.10;;;;;;5030579;28;20029;-79
2024/02/14 06:33:39;;;;;;;4.45;1.38;;;4.50;96.10;;;;;;5030204;28;20037;-80
2024/02/14 06:36:05;;;;;;;3.83;2.10;;;4.60;95.90;;;;;;5038314;28;20090;-79
2024/02/14 06:38:31;;;;;;;4.75;2.20;;;4.40;96.10;;;;;;5031577;28;20052;-80
2024/02/14 06:40:57;;;;;;;3.20;1.30;;;4.40;96.20;;;;;;5029567;28;20147;-80
2024/02/14 06:43:23;;;;;;;3.45;1.50;;;4.60;96.00;;;;;;5030818;28;21243;-79
2024/02/14 06:45:56;;;;;;;3.70;1.30;;;4.60;95.70;;;;;;5028066;28;20041;-79
2024/02/14 06:48:23;;;;;;;2.30;0.95;;;4.60;95.90;;;;;;5029190;28;20033;-80
2024/02/14 06:50:52;;;;;;;4.43;1.10;;;4.40;95.90;;;;;;5030247;28;20039;-78
2024/02/14 06:53:18;;;;;;;3.90;0.90;;;4.50;96.00;;;;;;5029464;28;20033;-78
2024/02/14 06:55:43;;;;;;;3.05;1.10;;;3.90;97.40;;;;;;5028759;28;20110;-79
2024/02/14 06:58:09;;;;;;;1.80;0.88;;;4.10;96.70;;;;;;5030628;28;20045;-80
2024/02/14 07:00:35;;;;;;;3.15;1.17;;;4.20;96.70;;;;;;5027989;28;20437;-79
2024/02/14 07:03:02;;;;;;;4.90;2.42;;;4.50;96.10;;;;;;5023792;28;20544;-79
2024/02/14 07:05:29;;;;;;;5.50;1.20;;;4.50;96.10;;;;;;5029482;28;20526;-80
2024/02/14 07:07:55;;;;;;;2.65;1.08;;;4.60;96.30;;;;;;5028888;28;20119;-82
2024/02/14 07:10:21;;;;;;;2.40;0.90;;;4.40;96.20;;;;;;5026320;28;20041;-79
2024/02/14 07:12:47;;;;;;;2.72;0.98;;;4.40;96.30;;;;;;5027487;28;20454;-78
2024/02/14 07:15:13;;;;;;;2.17;1.13;;;4.30;96.80;;;;;;5026296;28;20071;-81
2024/02/14 07:17:39;;;;;;;3.13;0.65;;;4.00;97.20;;;;;;5027130;28;20033;-81
2024/02/14 07:20:05;;;;;;;2.10;1.00;;;4.10;96.80;;;;;;5029141;28;20048;-81
2024/02/14 07:22:31;;;;;;;1.73;0.90;;;4.30;96.50;;;;;;5028521;28;20101;-78
2024/02/14 07:24:57;;;;;;;2.55;0.90;;;4.50;96.30;;;;;;5028029;28;20029;-78
2024/02/14 07:27:24;;;;;;;2.20;0.93;;;4.70;95.80;;;;;;5029547;28;20074;-80
2024/02/14 07:29:49;;;;;;;2.28;0.95;;;4.70;96.10;;;;;;5029222;28;20052;-81
2024/02/14 07:32:16;;;;;;;3.40;1.30;;;4.70;95.90;;;;;;5028616;28;20491;-81
2024/02/14 07:34:42;;;;;;;2.63;1.23;;;4.60;96.90;;;;;;5029800;28;20148;-81
2024/02/14 07:37:08;;;;;;;3.25;0.95;;;4.40;96.70;;;;;;5030443;28;20589;-81
2024/02/14 07:39:34;;;;;;;2.47;1.02;;;4.40;96.60;;;;;;5032479;28;20041;-81
2024/02/14 07:42:01;;;;;;;1.88;0.73;;;4.50;96.50;;;;;;5032596;28;20121;-81
2024/02/14 07:44:27;;;;;;;1.85;0.82;;;4.80;95.80;;;;;;5030777;28;20048;-81
2024/02/14 07:46:53;;;;;;;2.45;0.82;;;4.80;95.90;;;;;;5030476;28;20040;-79
2024/02/14 07:49:19;;;;;;;2.78;1.02;;;4.80;95.90;;;;;;5030987;28;20387;-78
2024/02/14 07:51:45;;;;;;;2.30;0.90;;;4.90;95.90;;;;;;5031877;28;20124;-79
2024/02/14 07:54:11;;;;;;;1.90;0.73;;;4.90;95.80;;;;;;5030769;28;20065;-78
2024/02/14 07:56:36;;;;;;;1.95;1.00;;;4.90;96.10;;;;;;5032141;28;20136;-78
2024/02/14 07:59:03;;;;;;;2.80;1.08;;;4.80;96.00;;;;;;5030742;28;20041;-78
2024/02/14 08:01:30;;;;;;;2.55;0.90;;;4.70;96.60;;;;;;5029841;28;20076;-78
2024/02/14 08:03:56;;;;;;;2.88;1.30;;;4.60;96.70;;;;;;5032866;28;20132;-80
2024/02/14 08:06:21;;;;;;;1.55;0.75;;;4.80;96.00;;;;;;5030736;28;20029;-78
2024/02/14 08:08:51;;;;;;;2.17;0.95;;;4.90;96.00;;;;;;5031617;28;20127;-78
2024/02/14 08:11:17;;;;;;;2.47;1.20;;;4.80;96.50;;;;;;5033470;28;20037;-79
2024/02/14 08:13:43;;;;;;;2.22;1.00;;;4.70;97.10;;;;;;5031591;28;20066;-79
2024/02/14 08:16:09;;;;;;;3.35;1.13;;;4.70;96.50;;;;;;5032004;28;20130;-79
2024/02/14 08:18:45;;;;;;;2.00;0.90;;;4.90;95.80;;;;;;5032649;28;20043;-78
2024/02/14 08:21:12;;;;;;;2.67;1.05;;;5.00;95.50;;;;;;5033708;28;20048;-81
2024/02/14 08:23:39;;;;;;;2.97;1.10;;;5.10;95.30;;;;;;5032192;28;20036;-81
2024/02/14 08:26:10;;;;;;;1.48;0.80;;;5.20;95.30;;;;;;5032098;28;20044;-78
2024/02/14 08:28:38;;;;;;;3.13;1.20;;;5.20;95.30;;;;;;5033599;28;20032;-80
2024/02/14 08:31:13;;;;;;;2.78;1.20;;;5.30;95.30;;;;;;5031670;28;20033;-78
2024/02/14 08:33:38;;;;;;;3.95;1.33;;;5.30;95.10;;;;;;5032663;28;20036;-78
2024/02/14 08:36:07;;;;;;;2.88;1.15;;;5.20;95.50;;;;;;5031300;28;20559;-79
2024/02/14 08:38:34;;;;;;;2.88;1.35;;;5.20;95.90;;;;;;5030922;28;20049;-79
2024/02/14 08:41:02;;;;;;;3.95;0.88;;;5.10;96.70;;;;;;5031826;28;20183;-78
2024/02/14 08:43:30;;;;;;;4.25;1.23;;;5.00;96.80;;;;;;5032415;28;20522;-78
2024/02/14 08:45:57;;;;;;;4.10;1.33;;;5.00;96.60;;;;;;5031840;28;20462;-78
2024/02/14 08:48:23;;;;;;;1.90;0.95;;;5.00;96.60;;;;;;5031216;28;22205;-80
2024/02/14 08:50:49;;;;;;;1.25;0.80;;;4.90;96.90;;;;;;5031664;28;20532;-78
2024/02/14 08:53:15;;;;;;;4.05;1.40;;;4.80;97.10;;;;;;5032610;28;20037;-78
2024/02/14 08:55:41;;;;;;;2.30;1.02;;;4.70;97.30;;;;;;5030178;28;21373;-78
2024/02/14 08:58:09;;;;;;;3.15;1.13;;;4.70;96.40;;;;;;5032083;28;20041;-78
2024/02/14 09:00:39;;;;;;;2.00;1.00;;;5.20;95.20;;;;;;5030989;28;20025;-77
2024/02/14 09:03:05;;;;;;;3.75;1.27;;;5.20;95.60;;;;;;5031072;28;20021;-80
2024/02/14 09:05:32;;;;;;;2.55;1.23;;;5.20;95.70;;;;;;5031824;28;20041;-80
2024/02/14 09:07:57;;;;;;;2.75;1.10;;;5.10;95.50;;;;;;5031236;28;20044;-80
2024/02/14 09:10:23;;;;;;;2.65;1.00;;;5.20;95.60;;;;;;5029987;28;20033;-81
2024/02/14 09:12:49;;;;;;;2.05;0.95;;;5.20;95.70;;;;;;5032379;28;20025;-82
2024/02/14 09:15:15;;;;;;;3.22;1.40;;;5.30;95.80;;;;;;5030099;28;20195;-80
2024/02/14 09:17:41;;;;;;;3.70;1.17;;;5.40;96.10;;;;;;5028861;28;20628;-81
2024/02/14 09:20:09;;;;;;;3.53;1.10;;;5.50;96.40;;;;;;5030514;28;20049;-81
2024/02/14 09:22:35;;;;;;;3.97;1.13;;;5.50;96.30;;;;;;5030331;28;20064;-80
2024/02/14 09:25:04;;;;;;;3.63;1.20;;;5.60;96.40;;;;;;5029666;28;20041;-80
2024/02/14 09:27:30;;;;;;;2.92;1.15;;;5.70;95.80;;;;;;5031911;28;20487;-81
2024/02/14 09:29:56;;;;;;;2.90;1.35;;;5.90;95.60;;;;;;5028362;28;20028;-80
2024/02/14 09:32:21;;;;;;;2.30;1.00;;;5.90;94.90;;;;;;5030576;28;21105;-79
2024/02/14 09:34:47;;;;;;;2.42;1.17;;;5.90;95.00;;;;;;5030390;28;20040;-79
2024/02/14 09:37:13;;;;;;;4.22;1.00;;;6.00;94.90;;;;;;5029136;28;20502;-78
2024/02/14 09:39:39;;;;;;;9.05;1.33;;;6.00;94.90;;;;;;5030731;28;21401;-78
2024/02/14 09:42:10;;;;;;;3.80;1.25;;;6.10;95.10;;;;;;5030228;28;20029;-78
2024/02/14 09:44:38;;;;;;;2.78;1.20;;;6.20;95.10;;;;;;5028739;28;20025;-79
2024/02/14 09:47:05;;;;;;;3.83;1.63;;;6.20;95.00;;;;;;5030579;28;20061;-79
2024/02/14 09:49:32;;;;;;;4.28;1.20;;;6.20;94.90;;;;;;5032058;28;20045;-80
2024/02/14 09:52:01;;;;;;;3.55;1.00;;;6.40;95.10;;;;;;5029603;28;20063;-79
2024/02/14 09:54:34;;;;;;;3.15;1.30;;;6.60;94.60;;;;;;5030406;28;20040;-79
2024/02/14 09:57:02;;;;;;;2.95;1.20;;;6.50;95.10;;;;;;5032296;28;20127;-80
2024/02/14 09:59:29;;;;;;;2.80;1.25;;;6.50;95.20;;;;;;5031132;28;20053;-79
2024/02/14 10:01:55;;;;;;;4.15;1.80;;;6.60;95.10;;;;;;5030792;28;20578;-80
2024/02/14 10:04:22;;;;;;;3.63;1.23;;;6.80;95.30;;;;;;5031524;28;20109;-80
2024/02/14 10:06:49;;;;;;;3.90;1.10;;;6.80;94.90;;;;;;5032120;28;20648;-81
2024/02/14 10:09:22;;;;;;;2.70;1.05;;;6.90;94.90;;;;;;5030527;28;20288;-80
2024/02/14 10:11:49;;;;;;;3.13;1.48;;;7.00;94.80;;;;;;5030953;28;20507;-80
2024/02/14 10:14:15;;;;;;;3.80;1.60;;;7.10;94.80;;;;;;5032032;28;20041;-82
2024/02/14 10:16:41;;;;;;;3.63;1.80;;;7.20;94.70;;;;;;5031526;28;20666;-82
2024/02/14 10:19:18;;;;;;;4.78;1.20;;;7.30;95.00;;;;;;5028966;28;20065;-81
2024/02/14 10:21:43;;;;;;;3.20;1.30;;;7.30;94.80;;;;;;5030572;28;20044;-82
2024/02/14 10:24:12;;;;;;;4.40;1.15;;;7.20;94.20;;;;;;5029574;28;20438;-82
2024/02/14 10:26:38;;;;;;;3.70;1.05;;;7.30;94.20;;;;;;5028974;28;20036;-81
2024/02/14 10:29:06;;;;;;;5.00;1.55;;;7.40;94.20;;;;;;5030814;28;20498;-82
2024/02/14 10:31:34;;;;;;;3.30;1.17;;;7.40;94.30;;;;;;5029508;28;20120;-81
2024/02/14 10:34:10;;;;;;;3.47;1.08;;;7.70;95.20;;;;;;5025293;28;20068;-80
2024/02/14 10:36:36;;;;;;;3.90;1.13;;;7.70;95.00;;;;;;5027394;28;20059;-80
2024/02/14 10:39:03;;;;;;;2.70;1.00;;;7.70;93.90;;;;;;5029673;28;20044;-80
2024/02/14 10:41:35;;;;;;;2.83;1.10;;;7.80;93.90;;;;;;5028969;28;20036;-79
2024/02/14 10:44:07;;;;;;;2.38;0.90;;;8.00;93.90;;;;;;5029594;28;20248;-80
2024/02/14 10:46:36;;;;;;;3.55;1.63;;;8.20;93.00;;;;;;5029591;28;20090;-80
2024/02/14 10:49:07;;;;;;;3.63;1.13;;;8.10;93.90;;;;;;5030001;28;20036;-79
2024/02/14 10:51:35;;;;;;;5.03;1.50;;;8.10;93.70;;;;;;5029394;28;20072;-82
2024/02/14 10:54:06;;;;;;;4.15;1.10;;;8.10;93.30;;;;;;5029660;28;20040;-82
2024/02/14 10:56:35;;;;;;;3.35;1.10;;;8.10;93.10;;;;;;5030168;28;20530;-82
2024/02/14 10:59:08;;;;;;;3.47;1.25;;;8.30;93.00;;;;;;5029077;28;20095;-80
2024/02/14 11:01:35;;;;;;;3.03;1.30;;;8.30;93.40;;;;;;5030530;28;20033;-80
2024/02/14 11:04:02;;;;;;;4.47;1.17;;;8.50;93.30;;;;;;5030795;28;20036;-79
2024/02/14 11:06:31;;;;;;;3.03;1.08;;;8.60;93.30;;;;;;5027637;28;20044;-79
2024/02/14 11:09:01;;;;;;;2.05;1.05;;;8.80;93.00;;;;;;5029192;28;21705;-79
2024/02/14 11:11:30;;;;;;;1.52;0.77;;;8.90;92.30;;;;;;5032213;28;20053;-79
2024/02/14 11:13:57;;;;;;;4.05;1.00;;;9.00;92.40;;;;;;5032268;28;20032;-79
2024/02/14 11:16:28;;;;;;;2.85;1.15;;;9.10;92.30;;;;;;5031250;28;20076;-79
2024/02/14 11:19:10;;;;;;;4.43;2.33;;;9.10;92.00;;;;;;5032094;28;20053;-80
2024/02/14 11:21:43;;;;;;;2.10;0.98;;;9.30;92.40;;;;;;5033588;28;20486;-79
2024/02/14 11:24:17;;;;;;;3.40;1.27;;;9.30;92.30;;;;;;5032459;28;20119;-79
2024/02/14 11:26:54;;;;;;;3.88;1.48;;;9.30;92.80;;;;;;5031371;28;20041;-82
2024/02/14 11:29:20;;;;;;;4.45;1.50;;;9.20;92.80;;;;;;5030804;28;20039;-81
2024/02/14 11:31:47;;;;;;;7.07;3.08;;;9.30;92.20;;;;;;5030390;28;20048;-77
2024/02/14 11:34:14;;;;;;;12.80;7.75;;;9.50;92.20;;;;;;5032215;28;20052;-78
2024/02/14 11:36:42;;;;;;;6.80;4.22;;;9.50;91.70;;;;;;5030281;28;20032;-77
2024/02/14 11:39:08;;;;;;;5.25;2.78;;;9.50;90.90;;;;;;5029852;28;20585;-77
2024/02/14 11:41:34;;;;;;;5.78;2.35;;;9.40;91.50;;;;;;5031215;28;20060;-77
2024/02/14 11:44:04;;;;;;;5.82;2.40;;;9.70;91.70;;;;;;5031442;28;20902;-78
2024/02/14 11:46:34;;;;;;;2.50;1.20;;;9.70;90.80;;;;;;5030860;28;20116;-77
2024/02/14 11:49:04;;;;;;;3.38;1.30;;;9.80;90.80;;;;;;5032114;28;20033;-79
2024/02/14 11:51:32;;;;;;;2.55;1.10;;;9.80;91.30;;;;;;5032720;28;20471;-78
2024/02/14 11:54:06;;;;;;;2.47;1.02;;;9.80;90.90;;;;;;5029649;28;20040;-78
2024/02/14 11:56:38;;;;;;;1.88;0.95;;;9.70;90.70;;;;;;5030829;28;20159;-78
2024/02/14 11:59:06;;;;;;;2.42;1.08;;;9.80;90.40;;;;;;5030614;28;20045;-79
2024/02/14 12:01:33;;;;;;;2.47;1.23;;;9.70;90.60;;;;;;5029915;28;20029;-77
2024/02/14 12:04:03;;;;;;;3.22;1.13;;;9.70;90.70;;;;;;5030491;28;20040;-78
2024/02/14 12:06:37;;;;;;;4.70;1.05;;;9.70;91.30;;;;;;5032637;28;20025;-78
2024/02/14 12:09:10;;;;;;;3.17;1.38;;;9.80;90.90;;;;;;5031665;28;20041;-78
2024/02/14 12:11:40;;;;;;;3.80;1.80;;;9.90;90.80;;;;;;5030636;28;20984;-78
2024/02/14 12:14:10;;;;;;;2.65;1.13;;;10.00;90.90;;;;;;5029050;28;20033;-78
2024/02/14 12:16:37;;;;;;;3.28;1.30;;;10.00;91.10;;;;;;5029496;28;20239;-78
2024/02/14 12:19:15;;;;;;;4.32;1.80;;;10.20;91.00;;;;;;5028047;28;20482;-78
2024/02/14 12:21:45;;;;;;;5.28;1.65;;;10.40;91.30;;;;;;5029653;28;20495;-79
2024/02/14 12:24:12;;;;;;;24.77;10.98;;;10.50;91.40;;;;;;5033538;28;20040;-78
2024/02/14 12:26:38;;;;;;;40.38;15.40;;;10.60;91.20;;;;;;5035184;28;20048;-78
2024/02/14 12:29:06;;;;;;;12.25;5.20;;;10.70;90.40;;;;;;5034883;28;20935;-77
2024/02/14 12:31:32;;;;;;;5.07;1.85;;;10.60;90.30;;;;;;5033539;28;20479;-78
2024/02/14 12:33:59;;;;;;;4.20;1.27;;;10.50;88.80;;;;;;5032294;28;20045;-78
2024/02/14 12:36:33;;;;;;;4.70;1.00;;;10.50;90.10;;;;;;5032123;28;20125;-77
2024/02/14 12:39:02;;;;;;;6.20;2.70;;;10.40;89.10;;;;;;5030618;28;20068;-78
2024/02/14 12:41:29;;;;;;;4.75;2.15;;;10.50;90.20;;;;;;5032530;28;20123;-78
2024/02/14 12:43:55;;;;;;;4.47;1.77;;;10.60;89.50;;;;;;5029165;28;20032;-80
2024/02/14 12:46:21;;;;;;;9.23;4.25;;;10.50;88.90;;;;;;5032017;28;20032;-80
2024/02/14 12:48:47;;;;;;;4.10;1.63;;;10.60;90.10;;;;;;5031672;28;20482;-80
2024/02/14 12:51:14;;;;;;;4.85;1.90;;;10.70;90.10;;;;;;5028601;28;20075;-78
2024/02/14 12:53:40;;;;;;;2.92;1.10;;;10.80;90.70;;;;;;5032057;28;20028;-78